Time;durP1;ratioP1;P1;durP2;ratioP2;P2;SDS_P1;SDS_P2;PMS_P1;PMS_P2;Temp;Humidity;BMP_temperature;BMP_pressure;BME280_temperature;BME280_humidity;BME280_pressure;Samples;Min_cycle;Max_cycle;Signal;HPM_P1;HPM_P2
2021/12/16 12:53:17;;;;;;;19.38;10.05;;;;;;;5.47;100.00;101022.16;5172898;27;20110;-79
2021/12/16 12:55:49;;;;;;;18.90;10.48;;;;;;;5.48;100.00;101007.72;5172197;27;20054;-79
2021/12/16 12:58:21;;;;;;;17.17;9.45;;;;;;;5.63;100.00;101020.13;5170924;27;20071;-80
2021/12/16 13:00:50;;;;;;;16.25;10.10;;;;;;;5.67;100.00;101023.47;5169493;27;20038;-79
2021/12/16 13:03:22;;;;;;;18.77;10.07;;;;;;;5.73;100.00;101017.63;5169674;27;20102;-79
2021/12/16 13:05:55;;;;;;;18.58;9.80;;;;;;;5.60;100.00;101027.56;5170164;27;20304;-79
2021/12/16 13:08:29;;;;;;;16.15;9.48;;;;;;;5.58;100.00;101032.19;5170766;27;20054;-79
2021/12/16 13:11:00;;;;;;;16.65;9.48;;;;;;;5.66;100.00;101024.41;5170564;27;20046;-79
2021/12/16 13:13:35;;;;;;;17.58;9.90;;;;;;;5.76;100.00;101014.72;5169616;27;20126;-79
2021/12/16 13:27:49;;;;;;;17.38;8.70;;;;;;;5.87;100.00;101011.25;5157998;27;19922;-80
2021/12/16 13:30:30;;;;;;;15.85;9.18;;;;;;;5.87;100.00;101010.38;5171205;27;20488;-79
2021/12/16 13:33:15;;;;;;;18.83;9.48;;;;;;;5.84;100.00;100995.25;5170117;27;20046;-79
2021/12/16 13:35:49;;;;;;;21.17;8.90;;;;;;;5.95;100.00;101010.72;5170288;27;20046;-80
2021/12/16 13:38:18;;;;;;;17.10;9.40;;;;;;;5.97;100.00;101012.34;5163448;27;20047;-80
2021/12/16 13:40:50;;;;;;;18.75;9.15;;;;;;;5.90;100.00;100999.38;5169636;27;20045;-80
2021/12/16 13:43:25;;;;;;;16.67;8.15;;;;;;;5.89;100.00;100995.81;5161263;27;20043;-79
2021/12/16 13:46:11;;;;;;;15.70;9.40;;;;;;;5.99;100.00;100999.63;5168810;27;20121;-79
2021/12/16 13:48:52;;;;;;;15.43;9.32;;;;;;;5.95;100.00;101006.19;5170026;27;20450;-79
2021/12/16 14:03:15;;;;;;;22.48;10.23;;;;;;;5.76;100.00;101012.00;5126838;27;20574;-79
2021/12/16 14:05:56;;;;;;;19.27;10.70;;;;;;;5.75;100.00;101007.59;5133041;27;20043;-79
2021/12/16 14:08:35;;;;;;;16.13;10.18;;;;;;;5.80;100.00;101018.94;5135132;27;20131;-79
2021/12/16 14:11:32;;;;;;;16.70;8.82;;;;;;;5.73;100.00;101006.84;5133940;27;20051;-79
2021/12/16 14:16:56;;;;;;;20.45;9.85;;;;;;;5.76;100.00;101044.41;5126231;27;20117;-80
2021/12/16 14:25:27;;;;;;;18.20;9.70;;;;;;;5.94;100.00;101050.34;5134246;27;20802;-79
2021/12/16 14:37:10;;;;;;;21.13;9.80;;;;;;;5.87;100.00;101030.13;5069028;28;20047;-79
2021/12/16 14:39:59;;;;;;;18.52;9.50;;;;;;;5.82;100.00;101053.91;5122616;27;20520;-80
2021/12/16 14:42:39;;;;;;;18.50;9.73;;;;;;;5.87;100.00;101054.44;5133899;27;20103;-80
2021/12/16 14:45:36;;;;;;;19.90;10.60;;;;;;;5.83;100.00;101045.69;5132709;27;20123;-80
2021/12/16 14:48:26;;;;;;;19.65;10.68;;;;;;;5.87;100.00;101051.72;5132923;27;20129;-79
2021/12/16 14:50:58;;;;;;;17.77;9.80;;;;;;;5.80;100.00;101050.47;5127673;27;20055;-80
2021/12/16 14:53:31;;;;;;;22.38;10.35;;;;;;;5.68;100.00;101050.34;5133593;27;20379;-80
2021/12/16 14:56:01;;;;;;;18.13;9.93;;;;;;;5.70;100.00;101057.47;5134026;27;20051;-80
2021/12/16 14:58:31;;;;;;;18.25;9.48;;;;;;;5.58;100.00;101053.78;5132818;27;20147;-80
2021/12/16 15:01:01;;;;;;;16.23;8.40;;;;;;;5.57;100.00;101055.63;5128629;27;20059;-80
2021/12/16 15:03:34;;;;;;;15.65;8.98;;;;;;;5.50;100.00;101063.28;5115170;27;20555;-80
2021/12/16 15:06:06;;;;;;;15.98;9.25;;;;;;;5.32;100.00;101049.22;5131789;27;20577;-80
2021/12/16 15:08:41;;;;;;;15.57;8.68;;;;;;;5.30;100.00;101053.84;5131921;27;20043;-80
2021/12/16 15:11:13;;;;;;;16.65;8.90;;;;;;;5.23;100.00;101065.16;5133448;27;20051;-80
2021/12/16 15:13:48;;;;;;;13.77;8.15;;;;;;;5.09;100.00;101061.56;5132997;27;20039;-80
2021/12/16 15:16:38;;;;;;;20.42;8.70;;;;;;;4.98;100.00;101053.31;5129300;27;20051;-80
2021/12/16 15:38:59;;;;;;;17.88;8.77;;;;;;;4.37;100.00;101080.63;5130860;27;20054;-79
2021/12/16 15:44:13;;;;;;;16.65;9.23;;;;;;;4.31;100.00;101086.41;5125528;27;20057;-80
2021/12/16 15:46:42;;;;;;;17.30;8.93;;;;;;;4.32;100.00;101074.69;5125443;27;20051;-80
2021/12/16 15:49:09;;;;;;;18.77;9.15;;;;;;;4.38;100.00;101076.09;5132521;27;20497;-79
2021/12/16 15:51:36;;;;;;;18.75;9.68;;;;;;;4.46;100.00;101095.34;5124816;27;20460;-80
2021/12/16 15:54:06;;;;;;;19.92;9.88;;;;;;;4.45;100.00;101093.59;5131743;27;20100;-80
2021/12/16 15:56:37;;;;;;;17.27;9.77;;;;;;;4.47;100.00;101086.31;5128692;27;20398;-80
2021/12/16 15:59:07;;;;;;;16.45;9.35;;;;;;;4.42;100.00;101065.03;5124743;27;20513;-80
2021/12/16 16:01:37;;;;;;;16.60;9.40;;;;;;;4.44;100.00;101075.69;5122338;27;20051;-80
2021/12/16 16:04:16;;;;;;;16.25;8.88;;;;;;;4.42;100.00;101078.47;5130202;27;20043;-81
2021/12/16 16:06:45;;;;;;;18.42;9.65;;;;;;;4.40;100.00;101085.81;5131885;27;20051;-80
2021/12/16 16:09:18;;;;;;;22.55;8.70;;;;;;;4.45;100.00;101087.34;5131948;27;20043;-79
2021/12/16 16:11:48;;;;;;;18.55;8.80;;;;;;;4.65;100.00;101084.22;5130387;27;20051;-80
2021/12/16 16:14:16;;;;;;;18.52;9.73;;;;;;;4.47;100.00;101090.81;5131975;27;20134;-80
2021/12/16 16:16:49;;;;;;;19.88;10.70;;;;;;;4.27;100.00;101081.31;5129993;27;20043;-80
2021/12/16 16:19:21;;;;;;;14.68;8.70;;;;;;;4.29;100.00;101076.69;5126833;27;20483;-80
2021/12/16 16:21:50;;;;;;;15.30;8.13;;;;;;;4.41;100.00;101103.72;5128858;27;20447;-80
2021/12/16 16:24:21;;;;;;;12.00;7.17;;;;;;;4.38;100.00;101100.31;5127612;27;20055;-80
2021/12/16 16:26:50;;;;;;;14.52;7.80;;;;;;;4.29;100.00;101093.72;5129679;27;20065;-80
2021/12/16 16:29:21;;;;;;;14.32;7.80;;;;;;;4.24;100.00;101093.97;5125089;27;20047;-79
2021/12/16 16:31:49;;;;;;;13.20;7.13;;;;;;;4.16;100.00;101080.16;5131738;27;20440;-80
2021/12/16 16:34:24;;;;;;;14.27;7.28;;;;;;;4.16;100.00;101082.84;5131041;27;20054;-80
2021/12/16 16:36:54;;;;;;;13.02;7.15;;;;;;;4.14;100.00;101079.41;5129425;27;20043;-80
2021/12/16 16:39:24;;;;;;;15.80;7.25;;;;;;;4.20;100.00;101097.84;5130553;27;20065;-80
2021/12/16 16:41:52;;;;;;;;;;;;;;;4.33;100.00;101103.31;5133345;27;20043;-80
2021/12/16 16:44:21;;;;;;;16.17;7.70;;;;;;;4.13;100.00;101077.66;5133327;27;20358;-79
2021/12/16 16:50:07;;;;;;;11.10;7.18;;;;;;;4.13;100.00;101087.56;5094818;28;20051;-79
2021/12/16 16:52:37;;;;;;;11.30;6.80;;;;;;;3.94;100.00;101066.31;5129863;27;20478;-80
2021/12/16 16:55:10;;;;;;;15.48;6.50;;;;;;;3.85;100.00;101074.00;5130582;27;20490;-80
2021/12/16 17:00:42;;;;;;;11.25;6.20;;;;;;;3.77;100.00;101070.91;5123214;27;20051;-80
2021/12/16 17:03:11;;;;;;;10.65;5.97;;;;;;;3.70;100.00;101066.84;5118952;28;20051;-80
2021/12/16 17:05:47;;;;;;;11.23;6.05;;;;;;;3.63;100.00;101068.19;5134000;28;20458;-80
2021/12/16 17:08:18;;;;;;;17.20;6.72;;;;;;;3.49;100.00;101055.59;5123252;28;20062;-79
2021/12/16 17:10:49;;;;;;;13.77;6.80;;;;;;;3.47;100.00;101058.38;5120183;28;20486;-79
2021/12/16 17:13:35;;;;;;;15.02;8.65;;;;;;;3.50;100.00;101081.53;5126096;28;20417;-80
2021/12/16 17:18:54;;;;;;;19.13;8.50;;;;;;;3.20;100.00;101082.41;5113186;28;20063;-79
2021/12/16 17:21:32;;;;;;;17.48;8.73;;;;;;;3.16;100.00;101084.41;5123309;28;20524;-80
2021/12/16 17:24:03;;;;;;;17.13;8.95;;;;;;;3.06;100.00;101082.34;5120388;28;20114;-80
2021/12/16 17:26:34;;;;;;;18.40;10.23;;;;;;;3.01;100.00;101072.72;5127481;27;20508;-80
2021/12/16 17:29:13;;;;;;;15.63;9.15;;;;;;;2.99;100.00;101079.16;5132284;28;20078;-80
2021/12/16 17:31:43;;;;;;;13.82;8.40;;;;;;;3.01;100.00;101075.41;5119049;28;20500;-79
2021/12/16 17:34:15;;;;;;;13.60;7.93;;;;;;;3.04;100.00;101070.81;5133197;28;20095;-80
2021/12/16 17:36:51;;;;;;;13.07;7.35;;;;;;;2.92;100.00;101065.22;5122905;28;20052;-79
2021/12/16 17:39:24;;;;;;;13.18;6.97;;;;;;;2.94;100.00;101081.25;5132142;27;20055;-80
2021/12/16 17:41:56;;;;;;;11.00;5.60;;;;;;;2.75;100.00;101060.78;5116127;28;20047;-81
2021/12/16 17:44:25;;;;;;;13.27;5.13;;;;;;;2.62;100.00;101065.13;5128622;27;20051;-79
2021/12/16 17:46:56;;;;;;;10.90;6.22;;;;;;;2.51;100.00;101078.31;5130870;27;20051;-84
2021/12/16 17:49:23;;;;;;;19.92;10.55;;;;;;;2.48;100.00;101082.03;5127121;27;20054;-79
2021/12/16 17:51:55;;;;;;;15.05;7.55;;;;;;;2.56;100.00;101089.66;5135047;27;20043;-80
2021/12/16 17:54:25;;;;;;;12.98;7.63;;;;;;;2.60;100.00;101097.44;5134383;27;20047;-80
2021/12/16 17:56:55;;;;;;;12.30;7.50;;;;;;;2.56;100.00;101085.16;5129021;27;20046;-80
2021/12/16 17:59:30;;;;;;;13.50;7.38;;;;;;;2.57;100.00;101099.44;5132674;27;20542;-80
2021/12/16 18:01:57;;;;;;;15.85;8.38;;;;;;;2.46;100.00;101086.63;5134833;27;20078;-80
2021/12/16 18:04:43;;;;;;;13.10;7.43;;;;;;;2.54;100.00;101115.72;5135284;27;20054;-80
2021/12/16 18:07:11;;;;;;;13.35;7.40;;;;;;;2.38;100.00;101094.22;5123949;27;20051;-79
2021/12/16 18:09:42;;;;;;;14.02;6.65;;;;;;;2.45;100.00;101112.63;5132798;27;20050;-80
2021/12/16 18:12:15;;;;;;;18.40;8.00;;;;;;;2.34;100.00;101106.97;5129365;27;20055;-79
2021/12/16 18:14:47;;;;;;;12.85;7.45;;;;;;;2.36;100.00;101101.50;5126629;27;20059;-79
2021/12/16 18:17:22;;;;;;;12.07;7.47;;;;;;;2.25;100.00;101102.97;5133594;27;20183;-79
2021/12/16 18:19:52;;;;;;;14.70;7.72;;;;;;;2.24;100.00;101111.09;5134181;27;20051;-79
2021/12/16 18:22:24;;;;;;;18.67;8.32;;;;;;;2.19;100.00;101107.81;5133514;27;20073;-80
2021/12/16 18:24:54;;;;;;;13.48;8.15;;;;;;;2.14;100.00;101108.06;5134307;27;20100;-79
2021/12/16 18:27:28;;;;;;;14.57;7.63;;;;;;;2.03;100.00;101108.66;5134116;27;20055;-80
2021/12/16 18:29:58;;;;;;;21.08;7.63;;;;;;;2.00;100.00;101111.47;5130722;27;20104;-80
2021/12/16 18:32:34;;;;;;;13.07;7.43;;;;;;;1.93;100.00;101102.03;5132065;27;20422;-80
2021/12/16 18:35:02;;;;;;;17.92;6.63;;;;;;;1.98;100.00;101110.69;5130006;27;20065;-80
2021/12/16 18:37:32;;;;;;;13.10;7.05;;;;;;;1.90;100.00;101112.94;5133869;27;20410;-78
2021/12/16 18:40:08;;;;;;;12.20;7.38;;;;;;;1.84;100.00;101107.88;5125421;27;20130;-79
2021/12/16 18:42:35;;;;;;;11.13;7.07;;;;;;;1.82;100.00;101115.13;5132800;27;20050;-79
2021/12/16 18:45:08;;;;;;;12.40;7.35;;;;;;;1.81;100.00;101116.97;5126195;27;20051;-79
2021/12/16 18:47:43;;;;;;;13.55;8.07;;;;;;;1.82;100.00;101118.66;5130819;27;20478;-81
2021/12/16 18:50:38;;;;;;;11.65;6.53;;;;;;;1.83;100.00;101120.41;5125649;27;20490;-79
2021/12/16 18:55:59;;;;;;;11.85;7.03;;;;;;;1.74;100.00;101107.50;5133212;27;20055;-78
2021/12/16 18:58:28;;;;;;;10.68;6.65;;;;;;;1.77;100.00;101145.72;5133718;27;20565;-78
2021/12/16 19:01:04;;;;;;;16.80;7.57;;;;;;;1.64;100.00;101133.03;5126258;27;20048;-79
2021/12/16 19:03:31;;;;;;;28.38;15.32;;;;;;;1.53;100.00;101131.78;5129328;27;20054;-79
2021/12/16 19:05:58;;;;;;;22.52;11.63;;;;;;;1.74;100.00;101143.22;5128960;27;20485;-79
2021/12/16 19:08:33;;;;;;;18.80;9.35;;;;;;;1.64;100.00;101136.63;5132666;27;20043;-80
2021/12/16 19:11:02;;;;;;;14.70;8.30;;;;;;;1.66;100.00;101145.44;5132879;27;20116;-79
2021/12/16 19:13:33;;;;;;;13.52;8.55;;;;;;;1.63;100.00;101145.59;5132677;27;20074;-79
2021/12/16 19:16:02;;;;;;;18.52;8.20;;;;;;;1.50;100.00;101144.47;5132716;27;20051;-80
2021/12/16 19:18:30;;;;;;;12.70;7.60;;;;;;;1.41;100.00;101130.59;5133641;27;20051;-80
2021/12/16 19:20:57;;;;;;;15.95;7.70;;;;;;;1.53;100.00;101149.69;5125808;27;20439;-79
2021/12/16 19:23:28;;;;;;;12.27;6.82;;;;;;;1.38;100.00;101133.41;5133581;27;20478;-79
2021/12/16 19:25:59;;;;;;;17.20;7.30;;;;;;;1.23;100.00;101136.88;5125944;27;20041;-79
2021/12/16 19:28:28;;;;;;;13.55;8.02;;;;;;;1.26;100.00;101127.84;5126606;27;20410;-79
2021/12/16 19:31:01;;;;;;;18.60;8.63;;;;;;;1.30;100.00;101143.69;5133275;27;20043;-80
2021/12/16 19:33:33;;;;;;;20.60;7.55;;;;;;;1.35;100.00;101160.38;5125227;27;20051;-79
2021/12/16 19:36:00;;;;;;;12.98;8.20;;;;;;;1.29;100.00;101155.31;5129665;27;20615;-80
2021/12/16 19:38:27;;;;;;;12.73;7.35;;;;;;;1.13;100.00;101149.00;5132634;27;20053;-79
2021/12/16 19:41:01;;;;;;;12.57;7.15;;;;;;;1.08;100.00;101130.47;5131827;27;20039;-80
2021/12/16 19:43:28;;;;;;;11.25;6.18;;;;;;;1.06;100.00;101135.03;5123483;27;20066;-79
2021/12/16 19:45:59;;;;;;;13.02;7.03;;;;;;;1.13;100.00;101141.84;5132672;27;20432;-79
2021/12/16 19:48:26;;;;;;;13.20;7.35;;;;;;;1.00;100.00;101135.34;5132508;27;20084;-80
2021/12/16 19:50:59;;;;;;;13.55;7.57;;;;;;;0.93;100.00;101142.81;5134566;27;20046;-80
2021/12/16 19:53:29;;;;;;;18.90;9.05;;;;;;;0.96;100.00;101139.97;5132106;27;20043;-80
2021/12/16 19:56:02;;;;;;;15.95;7.60;;;;;;;0.84;100.00;101153.97;5130584;27;20099;-80
2021/12/16 19:58:33;;;;;;;17.38;9.80;;;;;;;0.81;100.00;101149.66;5136220;27;20043;-83
2021/12/16 20:01:08;;;;;;;18.30;10.20;;;;;;;0.93;100.00;101147.31;5124804;27;20443;-80
2021/12/16 20:03:38;;;;;;;14.00;7.88;;;;;;;0.96;100.00;101150.69;5132714;27;20047;-80
2021/12/16 20:06:09;;;;;;;12.73;7.47;;;;;;;0.78;100.00;101140.88;5132413;27;20097;-80
2021/12/16 20:08:42;;;;;;;16.25;7.22;;;;;;;0.65;100.00;101146.81;5127627;27;20071;-80
2021/12/16 20:11:19;;;;;;;13.35;7.70;;;;;;;0.64;100.00;101149.56;5131608;27;20039;-79
2021/12/16 20:13:48;;;;;;;13.85;7.75;;;;;;;0.68;100.00;101156.53;5129915;27;20122;-80
2021/12/16 20:16:18;;;;;;;14.32;8.70;;;;;;;0.60;100.00;101138.13;5130101;27;20050;-80
2021/12/16 20:18:51;;;;;;;11.90;7.13;;;;;;;0.67;100.00;101160.97;5134023;27;20119;-80
2021/12/16 20:21:26;;;;;;;11.82;6.57;;;;;;;0.37;100.00;101149.06;5123768;27;20047;-79
2021/12/16 20:23:55;;;;;;;13.70;7.53;;;;;;;0.21;100.00;101149.75;5137312;27;20043;-79
2021/12/16 20:26:30;;;;;;;13.23;6.78;;;;;;;0.38;100.00;101174.84;5128618;27;20051;-80
2021/12/16 20:29:01;;;;;;;14.75;8.75;;;;;;;0.38;100.00;101164.16;5122082;27;20112;-79
2021/12/16 20:31:38;;;;;;;13.55;7.50;;;;;;;0.26;100.00;101150.41;5131179;27;20051;-79
2021/12/16 20:34:13;;;;;;;12.93;7.03;;;;;;;0.27;100.00;101173.56;5131546;27;20051;-80
2021/12/16 20:36:43;;;;;;;11.85;7.30;;;;;;;0.17;100.00;101162.38;5128818;27;20563;-80
2021/12/16 20:39:13;;;;;;;11.80;7.25;;;;;;;0.02;100.00;101156.88;5133712;27;20385;-80
2021/12/16 20:41:49;;;;;;;12.25;7.20;;;;;;;0.13;100.00;101170.63;5130691;27;20044;-79
2021/12/16 20:44:19;;;;;;;13.57;8.05;;;;;;;0.10;100.00;101162.75;5130324;27;20047;-80
2021/12/16 20:46:47;;;;;;;;;;;;;;;0.23;100.00;101182.66;5133195;27;20131;-80
2021/12/16 20:49:22;;;;;;;13.25;6.93;;;;;;;0.08;100.00;101175.31;5130568;27;19926;-79
2021/12/16 20:51:54;;;;;;;12.57;7.22;;;;;;;0.14;100.00;101183.94;5128143;27;20465;-80
2021/12/16 20:54:31;;;;;;;13.57;7.70;;;;;;;0.06;100.00;101163.81;5124367;27;20039;-80
2021/12/16 20:57:06;;;;;;;11.80;7.05;;;;;;;0.06;100.00;101186.09;5126340;27;20047;-80
2021/12/16 20:59:34;;;;;;;14.43;7.82;;;;;;;0.14;100.00;101178.56;5127726;28;20107;-80
2021/12/16 21:02:07;;;;;;;13.48;7.50;;;;;;;0.23;100.00;101179.97;5128231;27;20039;-80
2021/12/16 21:04:35;;;;;;;12.27;6.68;;;;;;;0.17;100.00;101162.38;5126386;27;20402;-80
2021/12/16 21:07:03;;;;;;;15.35;7.38;;;;;;;0.08;100.00;101176.19;5123680;27;20525;-80
2021/12/16 21:09:33;;;;;;;13.23;7.72;;;;;;;-0.04;100.00;101172.25;5123330;27;20051;-80
2021/12/16 21:12:04;;;;;;;11.68;6.07;;;;;;;-0.22;100.00;101175.72;5131603;27;20039;-80
2021/12/16 21:14:30;;;;;;;10.73;6.65;;;;;;;-0.08;100.00;101188.50;5132344;27;20051;-80
2021/12/16 21:16:57;;;;;;;15.23;7.20;;;;;;;-0.26;100.00;101183.00;5133316;27;20047;-79
2021/12/16 21:19:27;;;;;;;13.35;6.50;;;;;;;-0.26;100.00;101193.69;5136006;27;20044;-80
2021/12/16 21:22:01;;;;;;;11.05;6.28;;;;;;;-0.31;100.00;101174.31;5135226;27;20047;-80
2021/12/16 21:24:28;;;;;;;13.13;7.53;;;;;;;-0.18;100.00;101193.38;5129333;27;20047;-79
2021/12/16 21:26:55;;;;;;;20.20;7.78;;;;;;;-0.19;100.00;101192.50;5135328;27;20448;-79
2021/12/16 21:29:24;;;;;;;14.05;7.78;;;;;;;-0.26;100.00;101160.75;5134873;27;20039;-79
2021/12/16 21:31:53;;;;;;;19.15;8.38;;;;;;;-0.17;100.00;101172.84;5133328;27;20043;-80
2021/12/16 21:34:31;;;;;;;16.90;8.38;;;;;;;0.10;100.00;101186.81;5135666;27;20047;-80
2021/12/16 21:37:04;;;;;;;15.38;8.00;;;;;;;0.04;100.00;101173.72;5129267;27;20051;-79
2021/12/16 21:39:31;;;;;;;17.85;8.68;;;;;;;0.14;100.00;101164.34;5134888;27;20054;-80
2021/12/16 21:41:58;;;;;;;17.60;8.85;;;;;;;0.21;100.00;101172.94;5132934;27;20074;-79
2021/12/16 21:44:26;;;;;;;16.23;8.00;;;;;;;0.31;100.00;101179.63;5126367;27;20047;-80
2021/12/16 21:46:55;;;;;;;14.90;8.18;;;;;;;0.20;100.00;101168.53;5135330;27;20092;-79
2021/12/16 21:49:21;;;;;;;15.00;8.02;;;;;;;0.14;100.00;101167.03;5135238;27;20058;-80
2021/12/16 21:51:49;;;;;;;15.35;7.97;;;;;;;0.15;100.00;101184.78;5132485;27;20047;-80
2021/12/16 21:54:16;;;;;;;15.57;8.15;;;;;;;0.14;100.00;101178.56;5133906;27;20493;-79
2021/12/16 21:56:43;;;;;;;13.75;7.80;;;;;;;0.20;100.00;101189.94;5134504;27;20054;-80
2021/12/16 21:59:10;;;;;;;15.35;9.02;;;;;;;0.21;100.00;101171.16;5128869;27;20080;-79
2021/12/16 22:01:39;;;;;;;18.65;9.02;;;;;;;0.46;100.00;101192.28;5130325;27;20043;-80
2021/12/16 22:04:06;;;;;;;16.03;9.23;;;;;;;0.34;100.00;101166.97;5134953;27;20047;-80
2021/12/16 22:06:33;;;;;;;18.42;8.77;;;;;;;0.40;100.00;101179.19;5135163;27;20047;-80
2021/12/16 22:09:05;;;;;;;16.42;8.18;;;;;;;0.38;100.00;101180.19;5130657;27;20043;-80
2021/12/16 22:11:32;;;;;;;19.23;9.30;;;;;;;0.39;100.00;101182.81;5132222;27;20047;-80
2021/12/16 22:14:00;;;;;;;24.80;8.82;;;;;;;0.49;100.00;101188.63;5132441;27;20048;-80
2021/12/16 22:16:29;;;;;;;19.58;9.60;;;;;;;0.42;100.00;101155.94;5129827;27;20047;-80
2021/12/16 22:19:00;;;;;;;17.75;8.88;;;;;;;0.50;100.00;101185.88;5133603;27;20134;-80
2021/12/16 22:21:30;;;;;;;15.93;9.25;;;;;;;0.48;100.00;101168.13;5134217;27;20048;-80
2021/12/16 22:23:57;;;;;;;20.13;10.00;;;;;;;0.64;100.00;101179.88;5132611;27;20058;-80
2021/12/16 22:26:25;;;;;;;17.42;9.13;;;;;;;0.65;100.00;101180.75;5134641;27;20046;-80
2021/12/16 22:28:53;;;;;;;20.70;9.80;;;;;;;0.57;100.00;101169.53;5134325;27;20051;-79
2021/12/16 22:31:22;;;;;;;17.02;8.55;;;;;;;0.58;100.00;101168.59;5132421;27;20051;-80
2021/12/16 22:33:53;;;;;;;22.55;11.27;;;;;;;0.57;100.00;101165.03;5134798;27;20319;-80
2021/12/16 22:36:23;;;;;;;18.02;10.68;;;;;;;0.71;100.00;101191.19;5132938;27;20059;-79
2021/12/16 22:38:51;;;;;;;17.77;8.90;;;;;;;0.70;100.00;101173.38;5132942;27;20035;-80
2021/12/16 22:41:18;;;;;;;16.80;9.90;;;;;;;0.72;100.00;101184.00;5133550;27;20059;-79
2021/12/16 22:43:47;;;;;;;17.77;8.68;;;;;;;0.79;100.00;101175.59;5127310;27;20107;-79
2021/12/16 22:46:14;;;;;;;13.32;8.30;;;;;;;0.91;100.00;101189.38;5134286;27;20043;-80
2021/12/16 22:48:43;;;;;;;17.85;7.13;;;;;;;0.82;100.00;101185.31;5134104;27;20136;-79
2021/12/16 22:51:13;;;;;;;17.92;8.60;;;;;;;0.82;100.00;101194.19;5130742;27;20059;-80
2021/12/16 22:53:42;;;;;;;19.65;8.07;;;;;;;0.68;100.00;101183.28;5134124;27;20103;-79
2021/12/16 22:56:10;;;;;;;16.85;9.05;;;;;;;0.69;100.00;101183.22;5115835;27;20062;-80
2021/12/16 22:58:39;;;;;;;16.40;8.32;;;;;;;0.83;100.00;101189.75;5132884;27;20047;-80
2021/12/16 23:01:08;;;;;;;24.63;11.35;;;;;;;0.86;100.00;101171.69;5133465;27;20054;-79
2021/12/16 23:03:39;;;;;;;26.33;12.25;;;;;;;1.00;100.00;101192.47;5127793;27;20039;-79
2021/12/16 23:06:11;;;;;;;20.42;10.75;;;;;;;0.95;100.00;101186.47;5133889;27;20046;-80
2021/12/16 23:08:38;;;;;;;18.75;9.68;;;;;;;0.90;100.00;101177.75;5133750;27;20482;-80
2021/12/16 23:11:11;;;;;;;21.08;10.00;;;;;;;1.02;100.00;101187.91;5133653;27;20108;-80
2021/12/16 23:13:48;;;;;;;21.63;11.18;;;;;;;0.98;100.00;101190.78;5128855;27;20043;-80
2021/12/16 23:16:22;;;;;;;21.60;10.75;;;;;;;0.86;100.00;101174.38;5132922;27;20104;-80
2021/12/16 23:24:24;;;;;;;27.20;11.10;;;;;;;0.94;100.00;101189.22;5133519;27;20195;-80
2021/12/16 23:26:53;;;;;;;22.10;11.02;;;;;;;1.09;100.00;101192.97;5131903;27;20043;-80
2021/12/16 23:29:20;;;;;;;24.48;11.93;;;;;;;1.05;100.00;101185.09;5130463;27;20058;-79
2021/12/16 23:31:48;;;;;;;19.33;11.70;;;;;;;0.96;100.00;101172.13;5132584;27;20050;-79
2021/12/16 23:34:15;;;;;;;25.13;10.98;;;;;;;1.14;100.00;101193.59;5129692;27;20051;-80
2021/12/16 23:36:43;;;;;;;20.20;11.55;;;;;;;1.17;100.00;101174.69;5129500;27;20134;-80
2021/12/16 23:39:15;;;;;;;24.15;11.38;;;;;;;1.19;100.00;101181.72;5132544;27;20075;-80
2021/12/16 23:53:15;;;;;;;23.58;11.80;;;;;;;1.29;100.00;101190.16;5115957;27;20114;-80
2021/12/16 23:53:22;;;;;;;20.25;10.50;;;;;;;1.27;100.00;101172.44;5131202;27;20054;-79
2021/12/16 23:55:52;;;;;;;25.55;11.07;;;;;;;1.28;100.00;101171.47;5132814;27;20126;-79
2021/12/16 23:58:22;;;;;;;18.45;9.70;;;;;;;1.36;100.00;101174.66;5131584;27;20427;-79
